Time;durP1;ratioP1;P1;durP2;ratioP2;P2;SDS_P1;SDS_P2;PMS_P1;PMS_P2;Temp;Humidity;BMP_temperature;BMP_pressure;BME280_temperature;BME280_humidity;BME280_pressure;Samples;Min_cycle;Max_cycle;Signal;HPM_P1;HPM_P2
2024/04/12 00:00:59;;;;;;;79.75;75.25;;;;;;;10.09;100.00;102184.13;5561892;25;20001;-74
2024/04/12 00:03:29;;;;;;;99.45;94.35;;;;;;;10.25;100.00;102185.09;5564286;25;19997;-75
2024/04/12 00:06:06;;;;;;;88.72;83.88;;;;;;;10.14;100.00;102180.16;5533106;25;20836;-75
2024/04/12 00:08:37;;;;;;;73.28;69.30;;;;;;;10.05;100.00;102179.34;5562031;25;20483;-75
2024/04/12 00:11:04;;;;;;;84.80;80.30;;;;;;;10.09;100.00;102181.47;5562661;25;20007;-74
2024/04/12 00:13:36;;;;;;;86.15;81.55;;;;;;;10.11;100.00;102181.31;5564637;25;20023;-75
2024/04/12 00:16:08;;;;;;;79.15;74.95;;;;;;;9.72;100.00;102173.19;5562207;25;19996;-75
2024/04/12 00:18:37;;;;;;;93.65;87.97;;;;;;;10.17;100.00;102179.84;5564955;25;20001;-75
2024/04/12 00:21:07;;;;;;;88.13;83.43;;;;;;;10.09;100.00;102170.03;5562740;25;20340;-74
2024/04/12 00:23:39;;;;;;;89.78;84.97;;;;;;;10.12;100.00;102180.31;5564261;25;20464;-75
2024/04/12 00:26:05;;;;;;;101.80;95.85;;;;;;;10.03;100.00;102178.66;5562453;25;19997;-75
2024/04/12 00:28:36;;;;;;;99.38;94.35;;;;;;;9.84;100.00;102180.66;5564120;25;20377;-75
2024/04/12 00:31:06;;;;;;;120.95;114.72;;;;;;;9.95;100.00;102176.81;5562413;25;20440;-74
2024/04/12 00:33:35;;;;;;;99.10;93.88;;;;;;;10.06;100.00;102175.69;5564255;25;19996;-75
2024/04/12 00:36:07;;;;;;;92.18;87.18;;;;;;;9.68;100.00;102169.19;5562024;25;20015;-74
2024/04/12 00:38:41;;;;;;;93.97;89.10;;;;;;;9.88;100.00;102170.53;5564415;25;20053;-75
2024/04/12 00:41:14;;;;;;;94.88;89.78;;;;;;;10.07;100.00;102167.53;5562183;25;20351;-75
2024/04/12 00:43:45;;;;;;;90.13;85.35;;;;;;;10.30;100.00;102167.72;5563706;25;20016;-75
2024/04/12 00:46:17;;;;;;;112.55;106.75;;;;;;;10.16;100.00;102172.84;5561000;25;20707;-75
2024/04/12 00:48:54;;;;;;;69.90;65.90;;;;;;;10.17;100.00;102166.56;5562942;25;20004;-76
2024/04/12 00:51:24;;;;;;;33.13;30.55;;;;;;;10.04;100.00;102169.69;5524041;26;20433;-74
2024/04/12 00:53:59;;;;;;;33.05;30.52;;;;;;;10.02;100.00;102174.38;5562350;25;19997;-75
2024/04/12 00:56:27;;;;;;;33.22;31.02;;;;;;;9.84;100.00;102169.22;5563171;25;19996;-75
2024/04/12 00:58:59;;;;;;;35.45;32.63;;;;;;;10.01;100.00;102162.06;5565324;25;19997;-75
2024/04/12 01:01:26;;;;;;;35.65;33.35;;;;;;;9.95;100.00;102168.03;5561771;25;20001;-75
2024/04/12 01:03:56;;;;;;;33.50;31.30;;;;;;;10.04;100.00;102170.53;5563532;25;20001;-75
2024/04/12 01:06:24;;;;;;;34.90;32.60;;;;;;;9.75;100.00;102162.25;5559660;25;19997;-75
2024/04/12 01:08:58;;;;;;;35.25;32.85;;;;;;;10.02;100.00;102161.91;5560963;25;20004;-75
2024/04/12 01:11:27;;;;;;;31.15;29.05;;;;;;;9.64;100.00;102169.53;5544737;25;20007;-75
2024/04/12 01:13:58;;;;;;;32.20;29.90;;;;;;;9.93;100.00;102160.25;5564436;25;20001;-75
2024/04/12 01:16:25;;;;;;;35.47;33.17;;;;;;;9.84;100.00;102163.91;5561114;25;20007;-83
2024/04/12 01:18:55;;;;;;;80.07;75.78;;;;;;;9.84;100.00;102161.25;5565690;25;20240;-84
2024/04/12 01:21:31;;;;;;;88.97;84.32;;;;;;;9.95;100.00;102166.22;5563217;25;20011;-84
2024/04/12 01:24:06;;;;;;;67.05;63.22;;;;;;;9.88;100.00;102162.56;5566043;25;20032;-83
2024/04/12 01:26:35;;;;;;;62.30;58.92;;;;;;;9.80;100.00;102170.53;5562884;25;20700;-84
2024/04/12 01:29:05;;;;;;;60.50;57.20;;;;;;;9.77;100.00;102166.41;5565473;25;20001;-84
2024/04/12 01:31:34;;;;;;;73.13;69.13;;;;;;;9.79;100.00;102168.88;5559127;25;20001;-84
2024/04/12 01:34:13;;;;;;;31.95;29.55;;;;;;;9.78;100.00;102167.22;5565103;25;19997;-84
2024/04/12 01:36:42;;;;;;;31.02;29.13;;;;;;;9.52;100.00;102170.84;5562264;25;20005;-84
2024/04/12 01:39:21;;;;;;;30.38;28.38;;;;;;;9.74;100.00;102166.72;5565944;25;20461;-84
2024/04/12 01:41:51;;;;;;;29.52;27.63;;;;;;;9.83;100.00;102168.41;5563038;25;20016;-84
2024/04/12 01:44:24;;;;;;;30.95;28.58;;;;;;;9.68;100.00;102175.31;5564873;25;20044;-84
2024/04/12 01:46:52;;;;;;;28.63;26.83;;;;;;;9.88;100.00;102170.53;5562130;25;20432;-75
2024/04/12 01:49:22;;;;;;;29.95;28.05;;;;;;;9.75;100.00;102178.16;5563086;25;19997;-75
2024/04/12 01:51:49;;;;;;;31.48;29.38;;;;;;;9.40;100.00;102174.78;5560148;25;20454;-74
2024/04/12 01:54:22;;;;;;;31.52;29.38;;;;;;;9.53;100.00;102171.66;5562573;25;20000;-75
2024/04/12 01:56:51;;;;;;;30.35;28.45;;;;;;;9.35;100.00;102175.28;5559638;25;20001;-75
2024/04/12 01:59:21;;;;;;;29.15;27.05;;;;;;;9.53;100.00;102169.00;5563307;25;20001;-74
2024/04/12 02:01:48;;;;;;;29.70;27.70;;;;;;;9.58;100.00;102175.47;5560697;25;19992;-75
2024/04/12 02:04:18;;;;;;;29.38;26.85;;;;;;;9.23;100.00;102173.09;5562547;25;20000;-74
2024/04/12 02:06:48;;;;;;;27.38;25.50;;;;;;;9.55;100.00;102175.00;5555976;25;20851;-75
2024/04/12 02:09:19;;;;;;;24.75;23.15;;;;;;;9.51;100.00;102173.66;5563152;25;20066;-74
2024/04/12 02:11:45;;;;;;;27.80;26.20;;;;;;;9.30;100.00;102176.75;5560078;25;20337;-75
2024/04/12 02:14:17;;;;;;;28.52;26.73;;;;;;;9.31;100.00;102178.41;5561523;25;20004;-74
2024/04/12 02:16:49;;;;;;;30.00;27.90;;;;;;;9.43;100.00;102181.59;5559022;25;20101;-75
2024/04/12 02:19:21;;;;;;;29.65;27.67;;;;;;;9.33;100.00;102187.88;5562702;25;20245;-75
2024/04/12 02:21:50;;;;;;;52.33;47.97;;;;;;;8.99;100.00;102187.94;5559445;25;20008;-75
2024/04/12 02:24:19;;;;;;;37.15;34.40;;;;;;;8.88;100.00;102193.50;5563091;25;20711;-75
2024/04/12 02:26:47;;;;;;;37.92;35.53;;;;;;;9.10;100.00;102187.63;5559720;25;19996;-75
2024/04/12 02:29:22;;;;;;;33.88;31.80;;;;;;;8.92;100.00;102190.38;5563778;25;20010;-84
2024/04/12 02:31:50;;;;;;;31.48;29.48;;;;;;;9.00;100.00;102186.09;5562285;25;20008;-84
2024/04/12 02:34:19;;;;;;;32.75;30.55;;;;;;;8.43;100.00;102189.28;5564839;25;20004;-84
2024/04/12 02:36:48;;;;;;;36.67;34.47;;;;;;;8.95;100.00;102187.41;5562767;25;20068;-84
2024/04/12 02:39:23;;;;;;;34.53;32.25;;;;;;;8.78;100.00;102193.63;5564856;25;19993;-83
2024/04/12 02:41:49;;;;;;;34.78;32.58;;;;;;;8.71;100.00;102188.13;5561240;25;20040;-84
2024/04/12 02:44:24;;;;;;;36.47;34.17;;;;;;;9.02;100.00;102187.63;5564353;25;19996;-84
2024/04/12 02:46:51;;;;;;;34.55;32.35;;;;;;;8.87;100.00;102190.03;5560874;25;20007;-84
2024/04/12 02:49:20;;;;;;;34.67;32.47;;;;;;;9.01;100.00;102198.34;5564904;25;19997;-84
2024/04/12 02:51:47;;;;;;;30.77;28.77;;;;;;;9.02;100.00;102195.56;5562176;25;20089;-83
2024/04/12 02:54:17;;;;;;;31.75;29.45;;;;;;;8.91;100.00;102193.19;5563863;25;19996;-83
2024/04/12 02:56:45;;;;;;;34.67;32.53;;;;;;;8.95;100.00;102191.88;5560499;25;20001;-83
2024/04/12 02:59:16;;;;;;;33.28;31.08;;;;;;;8.86;100.00;102204.25;5562132;25;20012;-75
2024/04/12 03:01:45;;;;;;;33.35;31.15;;;;;;;8.59;100.00;102199.97;5558864;25;20032;-75
2024/04/12 03:04:17;;;;;;;36.08;33.58;;;;;;;8.88;100.00;102196.16;5562474;25;19997;-75
2024/04/12 03:06:43;;;;;;;31.15;29.08;;;;;;;8.71;100.00;102198.75;5559385;25;20352;-74
2024/04/12 03:09:12;;;;;;;32.85;30.70;;;;;;;8.55;100.00;102195.97;5555287;25;20001;-75
2024/04/12 03:11:40;;;;;;;32.60;30.60;;;;;;;8.55;100.00;102205.75;5559089;25;20093;-76
2024/04/12 03:14:12;;;;;;;30.88;28.98;;;;;;;8.14;100.00;102208.06;5561977;25;19996;-75
2024/04/12 03:16:42;;;;;;;48.13;44.05;;;;;;;8.36;100.00;102212.88;5559373;25;20081;-74
2024/04/12 03:19:14;;;;;;;52.92;49.72;;;;;;;8.45;100.00;102216.44;5562026;25;20019;-75
2024/04/12 03:21:41;;;;;;;25.80;24.20;;;;;;;8.25;100.00;102224.53;5560119;25;20011;-75
2024/04/12 03:24:11;;;;;;;47.00;43.70;;;;;;;8.33;100.00;102226.44;5563500;25;20045;-74
2024/04/12 03:26:37;;;;;;;43.13;40.38;;;;;;;8.34;100.00;102229.91;5559779;25;20012;-84
2024/04/12 03:29:06;;;;;;;41.30;38.75;;;;;;;8.21;100.00;102212.59;5565627;25;20352;-75
2024/04/12 03:31:34;;;;;;;38.47;36.05;;;;;;;8.33;100.00;102215.84;5549142;25;19996;-75
2024/04/12 03:34:07;;;;;;;44.50;41.45;;;;;;;8.23;100.00;102228.34;5565775;25;20001;-75
2024/04/12 03:36:53;;;;;;;37.50;35.30;;;;;;;8.24;100.00;102222.88;5562232;25;20001;-75
2024/04/12 03:39:34;;;;;;;35.08;33.17;;;;;;;8.24;100.00;102227.34;5566016;25;20437;-84
2024/04/12 03:42:06;;;;;;;33.83;31.92;;;;;;;8.19;100.00;102230.44;5563858;25;20001;-83
2024/04/12 03:44:36;;;;;;;31.30;29.57;;;;;;;8.29;100.00;102234.81;5565625;25;20373;-75
2024/04/12 03:47:07;;;;;;;35.47;33.28;;;;;;;8.36;100.00;102226.13;5563231;25;19992;-84
2024/04/12 03:49:39;;;;;;;31.42;29.65;;;;;;;8.47;100.00;102231.19;5564126;25;20007;-75
2024/04/12 03:52:19;;;;;;;28.85;26.85;;;;;;;8.28;100.00;102233.97;5562804;25;19996;-84
2024/04/12 03:55:08;;;;;;;22.98;21.58;;;;;;;8.27;100.00;102241.09;5565669;25;20000;-85
2024/04/12 03:57:44;;;;;;;24.50;23.00;;;;;;;8.24;100.00;102249.34;5562702;25;19997;-84
2024/04/12 04:00:14;;;;;;;23.08;21.77;;;;;;;8.28;100.00;102249.88;5565560;25;20008;-75
2024/04/12 04:02:48;;;;;;;23.52;21.92;;;;;;;8.20;100.00;102250.66;5562436;25;20020;-84
2024/04/12 04:05:15;;;;;;;24.00;22.30;;;;;;;8.23;100.00;102252.16;5562723;25;20086;-75
2024/04/12 04:07:47;;;;;;;24.42;23.02;;;;;;;8.18;100.00;102255.25;5552486;25;20987;-75
2024/04/12 04:10:15;;;;;;;;;;;;;;;8.17;100.00;102255.38;5556591;25;20093;-84
2024/04/12 04:12:49;;;;;;;29.27;23.88;;;;;;;8.21;100.00;102251.47;5566843;25;19947;-84
2024/04/12 04:15:25;;;;;;;23.23;21.88;;;;;;;8.10;100.00;102262.28;5557418;25;20001;-84
2024/04/12 04:17:54;;;;;;;23.05;21.75;;;;;;;8.14;100.00;102261.84;5550924;25;20075;-75
2024/04/12 04:20:26;;;;;;;22.15;20.85;;;;;;;8.41;100.00;102258.28;5561452;25;20001;-75
2024/04/12 04:23:05;;;;;;;22.30;20.88;;;;;;;8.33;100.00;102265.31;5564531;25;19996;-75
2024/04/12 04:25:31;;;;;;;21.15;19.85;;;;;;;8.40;100.00;102269.03;5553344;25;20019;-75
2024/04/12 04:28:00;;;;;;;22.80;21.50;;;;;;;8.68;100.00;102259.13;5563715;25;20370;-85
2024/04/12 04:30:27;;;;;;;23.42;22.02;;;;;;;8.75;100.00;102269.94;5525708;26;20936;-84
2024/04/12 04:32:59;;;;;;;25.05;23.45;;;;;;;8.75;100.00;102260.19;5528185;25;20001;-84
2024/04/12 04:35:27;;;;;;;23.20;21.67;;;;;;;8.99;100.00;102266.63;5561424;25;20007;-85
2024/04/12 04:37:58;;;;;;;25.17;23.58;;;;;;;9.17;100.00;102259.41;5565600;25;20012;-84
2024/04/12 04:40:25;;;;;;;28.83;26.73;;;;;;;9.37;100.00;102262.63;5563036;25;20012;-84
2024/04/12 04:42:54;;;;;;;24.58;23.05;;;;;;;9.37;100.00;102252.00;5565363;25;20033;-84
2024/04/12 04:45:21;;;;;;;25.10;23.60;;;;;;;9.49;100.00;102271.13;5561985;25;20525;-77
2024/04/12 04:47:56;;;;;;;27.15;24.75;;;;;;;9.73;100.00;102265.88;5558721;25;20019;-77
2024/04/12 04:50:23;;;;;;;25.88;24.38;;;;;;;9.68;100.00;102262.03;5555713;25;20520;-77
2024/04/12 04:52:53;;;;;;;27.50;25.35;;;;;;;9.85;100.00;102269.06;5564391;25;20001;-77
2024/04/12 04:55:23;;;;;;;28.42;26.63;;;;;;;13.81;100.00;102260.94;5555991;25;20014;-76
2024/04/12 04:57:54;;;;;;;25.65;24.15;;;;;;;10.86;100.00;102260.78;5567673;25;20023;-75
2024/04/12 05:00:22;;;;;;;28.30;25.83;;;;;;;10.31;100.00;102262.31;5572570;25;20481;-75
2024/04/12 05:02:52;;;;;;;28.23;26.63;;;;;;;10.29;100.00;102264.31;5562889;25;20337;-75
2024/04/12 05:05:23;;;;;;;27.45;25.60;;;;;;;10.48;100.00;102270.28;5560329;25;20007;-85
2024/04/12 05:07:55;;;;;;;26.67;25.17;;;;;;;10.49;100.00;102274.59;5557329;25;20080;-84
2024/04/12 05:10:24;;;;;;;28.35;26.75;;;;;;;10.74;100.00;102273.59;5562091;25;20028;-85
2024/04/12 05:12:56;;;;;;;29.65;28.02;;;;;;;10.87;100.00;102277.53;5565253;25;20001;-85
2024/04/12 05:15:49;;;;;;;28.07;26.37;;;;;;;11.13;100.00;102279.94;5562008;25;20079;-85
2024/04/12 05:18:18;;;;;;;28.77;27.05;;;;;;;11.11;100.00;102285.44;5564387;25;20237;-85
2024/04/12 05:20:47;;;;;;;29.20;27.50;;;;;;;11.10;100.00;102285.59;5561584;25;19997;-85
2024/04/12 05:23:17;;;;;;;27.13;25.48;;;;;;;11.35;100.00;102278.38;5564734;25;19997;-85
2024/04/12 05:25:54;;;;;;;28.27;26.58;;;;;;;11.70;100.00;102290.34;5562447;25;20005;-86
2024/04/12 05:28:30;;;;;;;30.75;28.65;;;;;;;12.04;100.00;102287.34;5564835;25;19996;-85
2024/04/12 05:31:03;;;;;;;30.13;28.10;;;;;;;12.02;100.00;102288.53;5561912;25;20009;-85
2024/04/12 05:33:34;;;;;;;31.08;29.08;;;;;;;12.41;100.00;102291.03;5565512;25;20864;-85
2024/04/12 05:36:01;;;;;;;31.35;29.55;;;;;;;12.24;100.00;102290.34;5562632;25;20457;-85
2024/04/12 05:38:31;;;;;;;33.35;31.55;;;;;;;12.34;100.00;102300.75;5564457;25;20029;-85
2024/04/12 05:41:04;;;;;;;33.83;31.95;;;;;;;12.57;100.00;102290.88;5561804;25;20008;-85
2024/04/12 05:43:33;;;;;;;38.35;36.35;;;;;;;12.77;100.00;102296.53;5564318;25;20013;-85
2024/04/12 05:46:00;;;;;;;38.08;36.08;;;;;;;13.01;100.00;102298.13;5561765;25;20000;-85
2024/04/12 05:48:30;;;;;;;38.35;36.15;;;;;;;13.06;100.00;102297.56;5564470;25;20494;-85
2024/04/12 05:50:58;;;;;;;38.30;36.38;;;;;;;13.10;100.00;102287.34;5561977;25;20040;-85
2024/04/12 05:53:30;;;;;;;36.88;34.95;;;;;;;13.51;100.00;102287.72;5564293;25;20405;-85
2024/04/12 05:58:50;;;;;;;35.78;33.97;;;;;;;13.88;100.00;102280.50;5526514;26;20024;-75
2024/04/12 06:01:17;;;;;;;29.50;27.95;;;;;;;14.12;100.00;102280.13;5524358;25;20009;-85
2024/04/12 06:03:48;;;;;;;32.28;30.38;;;;;;;14.25;100.00;102282.13;5563606;25;20004;-75
2024/04/12 06:06:15;;;;;;;29.67;28.05;;;;;;;14.46;100.00;102280.41;5560502;25;20029;-75
2024/04/12 06:08:45;;;;;;;32.10;30.30;;;;;;;14.86;100.00;102293.09;5557821;25;20073;-85
2024/04/12 06:11:21;;;;;;;32.00;30.23;;;;;;;14.84;100.00;102280.94;5551758;25;20321;-85
2024/04/12 06:13:53;;;;;;;35.28;33.28;;;;;;;15.34;100.00;102282.44;5564395;25;20072;-85
2024/04/12 06:16:20;;;;;;;31.52;29.65;;;;;;;15.54;100.00;102274.47;5524329;26;20016;-85
2024/04/12 06:18:50;;;;;;;28.08;26.38;;;;;;;15.62;100.00;102278.03;5554101;25;20076;-85
2024/04/12 06:21:18;;;;;;;28.33;26.63;;;;;;;15.93;100.00;102282.84;5560313;25;20325;-75
2024/04/12 06:23:49;;;;;;;29.13;26.63;;;;;;;16.23;100.00;102283.31;5562673;25;20456;-76
2024/04/12 06:26:15;;;;;;;28.08;26.48;;;;;;;16.59;100.00;102277.53;5560690;25;20000;-85
2024/04/12 06:28:47;;;;;;;28.20;26.50;;;;;;;16.84;100.00;102279.59;5553937;25;20016;-85
2024/04/12 06:31:19;;;;;;;26.77;25.27;;;;;;;16.80;100.00;102276.50;5547725;25;20038;-85
2024/04/12 06:33:50;;;;;;;30.13;27.63;;;;;;;16.98;100.00;102278.53;5560761;25;20025;-85
2024/04/12 06:36:19;;;;;;;26.30;25.00;;;;;;;17.15;100.00;102277.00;5560926;25;20015;-86
2024/04/12 06:38:45;;;;;;;26.65;25.25;;;;;;;17.61;100.00;102278.69;5560604;25;19997;-86
2024/04/12 06:41:17;;;;;;;26.40;25.00;;;;;;;17.57;100.00;102280.13;5562990;25;20047;-85
2024/04/12 06:43:48;;;;;;;27.42;25.92;;;;;;;17.56;100.00;102288.41;5560959;25;20029;-85
2024/04/12 06:46:18;;;;;;;27.65;26.13;;;;;;;17.82;100.00;102280.25;5558891;25;20332;-85
2024/04/12 06:48:49;;;;;;;26.60;25.10;;;;;;;18.18;100.00;102278.72;5538949;25;20011;-86
2024/04/12 06:51:24;;;;;;;27.42;25.38;;;;;;;18.48;100.00;102286.97;5563550;25;20784;-86
2024/04/12 06:53:56;;;;;;;26.30;24.60;;;;;;;18.85;100.00;102276.31;5547699;25;20093;-85
2024/04/12 06:56:33;;;;;;;26.23;24.63;;;;;;;18.27;100.00;102269.34;5560334;25;19997;-85
2024/04/12 06:59:07;;;;;;;28.10;26.40;;;;;;;18.46;100.00;102281.00;5533746;25;19996;-85
2024/04/12 07:01:43;;;;;;;26.73;24.90;;;;;;;18.58;100.00;102285.66;5535239;25;20069;-86
2024/04/12 07:04:10;;;;;;;24.67;23.17;;;;;;;19.36;100.00;102282.34;5558236;25;20019;-84
2024/04/12 07:06:42;;;;;;;23.05;21.75;;;;;;;19.53;100.00;102279.84;5546041;25;20485;-85
2024/04/12 07:09:08;;;;;;;26.38;24.98;;;;;;;19.54;100.00;102286.88;5555177;25;20015;-85
2024/04/12 07:11:39;;;;;;;26.23;24.73;;;;;;;19.55;100.00;102281.28;5562893;25;20453;-86
2024/04/12 07:14:08;;;;;;;26.33;24.92;;;;;;;19.19;100.00;102282.16;5559300;25;20016;-85
2024/04/12 07:16:39;;;;;;;23.50;22.10;;;;;;;19.71;100.00;102284.41;5562463;25;20001;-86
2024/04/12 07:19:09;;;;;;;26.15;24.55;;;;;;;19.67;100.00;102278.66;5560595;25;19993;-86
2024/04/12 07:21:54;;;;;;;27.40;25.50;;;;;;;19.83;100.00;102283.41;5562801;25;20012;-85
2024/04/12 07:24:22;;;;;;;26.45;24.85;;;;;;;19.79;100.00;102284.91;5560376;25;20455;-85
2024/04/12 07:26:54;;;;;;;27.45;25.65;;;;;;;20.31;100.00;102270.84;5562872;25;20444;-85
2024/04/12 07:29:23;;;;;;;42.10;26.33;;;;;;;20.04;100.00;102283.91;5559968;25;19996;-85
2024/04/12 07:31:53;;;;;;;29.15;26.20;;;;;;;19.92;100.00;102274.97;5527625;25;20042;-84
2024/04/12 07:34:20;;;;;;;25.60;23.90;;;;;;;20.25;100.00;102274.47;5560016;25;20114;-85
2024/04/12 07:36:52;;;;;;;29.52;27.05;;;;;;;20.84;100.00;102277.16;5562328;25;20011;-85
2024/04/12 07:39:18;;;;;;;27.83;25.92;;;;;;;19.89;100.00;102268.19;5560298;25;20012;-85
2024/04/12 07:41:48;;;;;;;28.63;26.73;;;;;;;20.85;100.00;102276.94;5561398;25;19996;-75
2024/04/12 07:44:15;;;;;;;29.17;27.08;;;;;;;20.63;100.00;102275.91;5558042;25;20075;-75
2024/04/12 07:46:49;;;;;;;26.50;24.70;;;;;;;20.58;100.00;102268.53;5561599;25;20001;-75
2024/04/12 07:49:15;;;;;;;27.20;25.50;;;;;;;20.57;100.00;102269.56;5558629;25;20361;-76
2024/04/12 07:51:47;;;;;;;29.70;27.70;;;;;;;20.33;100.00;102272.25;5560224;25;20016;-75
2024/04/12 07:54:15;;;;;;;31.08;29.08;;;;;;;21.07;100.00;102270.91;5557911;25;20001;-75
2024/04/12 07:56:49;;;;;;;27.00;25.10;;;;;;;20.88;100.00;102273.78;5560143;25;20011;-75
2024/04/12 07:59:17;;;;;;;27.27;25.33;;;;;;;20.65;100.00;102273.78;5558198;25;20961;-75
2024/04/12 08:01:51;;;;;;;28.33;26.83;;;;;;;21.79;100.00;102275.84;5560304;25;20575;-76
2024/04/12 08:04:24;;;;;;;26.27;24.70;;;;;;;20.92;100.00;102277.63;5557966;25;19997;-76
2024/04/12 08:06:59;;;;;;;28.25;26.65;;;;;;;21.22;100.00;102266.66;5560119;25;20018;-76
2024/04/12 08:09:42;;;;;;;28.08;26.38;;;;;;;21.16;100.00;102267.59;5551074;25;20098;-75
2024/04/12 08:12:17;;;;;;;28.80;27.00;;;;;;;22.11;100.00;102262.59;5565644;25;19997;-75
2024/04/12 08:14:51;;;;;;;37.83;35.63;;;;;;;22.47;100.00;102261.28;5562245;25;20008;-76
2024/04/12 08:17:25;;;;;;;39.70;37.40;;;;;;;22.34;100.00;102256.22;5564562;25;20041;-75
2024/04/12 08:19:55;;;;;;;38.63;36.53;;;;;;;22.49;100.00;102261.88;5562477;25;19993;-76
2024/04/12 08:22:25;;;;;;;40.20;37.90;;;;;;;22.85;100.00;102257.75;5564945;25;20016;-76
2024/04/12 08:24:52;;;;;;;40.30;37.80;;;;;;;21.55;100.00;102269.75;5562172;25;20052;-75
2024/04/12 08:27:24;;;;;;;39.05;36.65;;;;;;;21.72;100.00;102257.91;5564809;25;20448;-75
2024/04/12 08:29:51;;;;;;;37.70;35.50;;;;;;;22.30;100.00;102253.19;5560848;25;20001;-75
2024/04/12 08:32:27;;;;;;;37.08;34.75;;;;;;;21.65;100.00;102259.09;5564251;25;20000;-76
2024/04/12 08:34:57;;;;;;;35.65;33.55;;;;;;;22.07;100.00;102254.16;5560970;25;20026;-75
2024/04/12 08:37:30;;;;;;;34.70;32.60;;;;;;;21.94;100.00;102257.19;5563596;25;20052;-75
2024/04/12 08:39:57;;;;;;;44.83;42.33;;;;;;;22.18;100.00;102247.88;5561462;25;19996;-75
2024/04/12 08:42:28;;;;;;;41.95;39.65;;;;;;;23.01;100.00;102255.28;5564424;25;20000;-75
2024/04/12 08:45:12;;;;;;;52.33;49.63;;;;;;;23.42;100.00;102255.72;5562030;25;19992;-75
2024/04/12 08:47:54;;;;;;;48.53;45.95;;;;;;;23.29;100.00;102246.91;5564517;25;20015;-76
2024/04/12 08:50:23;;;;;;;37.53;35.42;;;;;;;23.46;100.00;102249.53;5561511;25;19997;-76
2024/04/12 08:52:57;;;;;;;33.88;31.77;;;;;;;23.41;100.00;102245.97;5564428;25;20847;-75
2024/04/12 08:55:28;;;;;;;41.63;39.13;;;;;;;23.61;100.00;102242.66;5561290;25;20785;-75
2024/04/12 08:58:00;;;;;;;41.97;39.50;;;;;;;23.68;100.00;102251.38;5563738;25;20001;-75
2024/04/12 09:00:32;;;;;;;44.33;41.75;;;;;;;23.73;100.00;102233.28;5561608;25;19997;-75
2024/04/12 09:03:10;;;;;;;43.38;40.67;;;;;;;23.84;100.00;102236.91;5564215;25;20390;-75
2024/04/12 09:05:40;;;;;;;47.50;44.90;;;;;;;23.59;100.00;102237.47;5561417;25;20700;-75
2024/04/12 09:08:09;;;;;;;47.80;45.20;;;;;;;22.69;100.00;102239.66;5563944;25;20069;-75
2024/04/12 09:10:35;;;;;;;41.90;39.50;;;;;;;23.82;100.00;102230.94;5554051;25;20712;-75
2024/04/12 09:13:08;;;;;;;58.17;55.17;;;;;;;24.16;100.00;102233.34;5564410;25;21009;-75
2024/04/12 09:15:34;;;;;;;56.58;53.50;;;;;;;24.07;100.00;102230.31;5561524;25;19997;-75
2024/04/12 09:18:13;;;;;;;54.00;50.10;;;;;;;24.43;100.00;102214.28;5564621;25;19996;-85
2024/04/12 09:20:40;;;;;;;47.95;45.25;;;;;;;24.55;100.00;102219.50;5562100;25;19998;-85
2024/04/12 09:23:19;;;;;;;49.05;45.95;;;;;;;24.80;100.00;102221.53;5565002;25;20000;-85
2024/04/12 09:25:54;;;;;;;51.08;48.28;;;;;;;24.48;100.00;102213.47;5562579;25;20721;-85
2024/04/12 09:28:26;;;;;;;57.00;53.90;;;;;;;24.78;100.00;102218.25;5565213;25;20007;-85
2024/04/12 09:33:50;;;;;;;49.47;46.67;;;;;;;24.35;100.00;102209.31;5564379;25;20917;-76
2024/04/12 09:36:28;;;;;;;50.58;47.78;;;;;;;24.78;100.00;102215.53;5561149;25;20584;-75
2024/04/12 09:38:59;;;;;;;50.42;47.53;;;;;;;24.91;100.00;102204.19;5563314;25;20665;-76
2024/04/12 09:41:29;;;;;;;50.97;48.17;;;;;;;24.55;100.00;102197.78;5561262;25;20008;-76
2024/04/12 09:44:01;;;;;;;60.13;56.97;;;;;;;24.43;100.00;102198.81;5563538;25;20016;-76
2024/04/12 09:46:46;;;;;;;59.85;56.65;;;;;;;24.49;100.00;102196.13;5560550;25;20001;-76
2024/04/12 10:39:44;;;;;;;55.25;51.95;;;;;;;25.46;86.92;102128.47;5562761;25;20554;-76
2024/04/12 10:42:14;;;;;;;71.47;67.57;;;;;;;26.19;89.99;102139.81;5559789;25;20007;-76
2024/04/12 10:44:46;;;;;;;66.90;63.10;;;;;;;25.54;83.44;102131.47;5560428;25;19997;-76
2024/04/12 10:47:12;;;;;;;;;;;;;;;26.15;100.00;102130.56;5561593;25;20331;-75
2024/04/12 10:49:43;;;;;;;67.60;63.65;;;;;;;26.57;96.27;102129.34;5562643;25;19922;-76
2024/04/12 10:52:14;;;;;;;66.00;62.45;;;;;;;26.76;82.01;102121.34;5560163;25;20067;-76
2024/04/12 10:54:47;;;;;;;70.50;66.60;;;;;;;26.09;100.00;102123.50;5559331;25;20022;-76
2024/04/12 10:57:14;;;;;;;72.35;68.05;;;;;;;26.73;97.98;102128.16;5559666;25;20075;-76
2024/04/12 10:59:43;;;;;;;64.22;60.45;;;;;;;27.36;89.02;102122.03;5562505;25;19997;-76
2024/04/12 11:02:10;;;;;;;70.53;66.53;;;;;;;26.87;76.37;102116.63;5560195;25;20012;-76
2024/04/12 11:07:21;;;;;;;42.65;40.03;;;;;;;27.16;83.17;102114.81;5561918;25;20005;-76
2024/04/12 11:09:57;;;;;;;51.33;48.13;;;;;;;27.84;80.13;102107.72;5552523;25;20001;-76
2024/04/12 11:12:29;;;;;;;50.35;47.35;;;;;;;27.69;68.95;102116.03;5562245;25;20005;-76
2024/04/12 11:15:12;;;;;;;49.58;46.03;;;;;;;25.20;82.48;102116.75;5559604;25;20001;-75
2024/04/12 11:31:39;;;;;;;65.70;61.88;;;;;;;26.85;73.29;102094.31;5495552;25;20001;-85
2024/04/12 11:34:08;;;;;;;65.68;62.03;;;;;;;25.72;85.51;102093.88;5559910;25;20000;-85
2024/04/12 11:36:39;;;;;;;60.08;56.67;;;;;;;26.94;95.54;102081.72;5560424;25;20367;-86
2024/04/12 11:39:25;;;;;;;49.38;46.47;;;;;;;26.75;84.40;102083.44;5559694;25;20089;-85
2024/04/12 11:41:55;;;;;;;50.83;47.72;;;;;;;27.63;78.39;102075.13;5559726;25;19997;-85
2024/04/12 11:44:24;;;;;;;44.58;41.67;;;;;;;26.98;83.84;102082.75;5562052;25;20030;-76
2024/04/12 11:46:55;;;;;;;47.38;44.58;;;;;;;27.51;68.24;102073.91;5564176;25;20044;-76
2024/04/12 11:49:30;;;;;;;45.38;42.78;;;;;;;26.78;78.60;102078.28;5566298;25;20012;-76
2024/04/12 11:51:57;;;;;;;58.22;55.03;;;;;;;27.46;81.16;102073.94;5562941;25;19996;-76
2024/04/12 11:54:29;;;;;;;69.93;66.28;;;;;;;25.97;74.36;102074.00;5566044;25;20016;-76
2024/04/12 11:56:59;;;;;;;63.80;60.40;;;;;;;28.07;71.65;102062.38;5562844;25;20007;-76
2024/04/12 11:59:29;;;;;;;53.47;50.47;;;;;;;29.08;60.50;102064.00;5566409;25;20269;-85
2024/04/12 12:02:04;;;;;;;54.92;51.83;;;;;;;26.70;68.58;102066.06;5563351;25;19993;-86
2024/04/12 12:04:35;;;;;;;55.20;52.03;;;;;;;27.48;80.36;102058.94;5565783;25;20037;-85
2024/04/12 12:07:04;;;;;;;73.80;53.58;;;;;;;26.99;82.09;102051.69;5563601;25;20032;-84
2024/04/12 12:09:36;;;;;;;53.75;50.70;;;;;;;27.31;69.14;102055.81;5566728;25;19996;-86
2024/04/12 12:12:10;;;;;;;67.68;64.07;;;;;;;27.55;69.38;102050.41;5557363;25;20491;-86
2024/04/12 12:14:41;;;;;;;51.25;47.90;;;;;;;25.20;83.76;102062.38;5565754;25;20008;-86
2024/04/12 12:17:09;;;;;;;51.58;48.67;;;;;;;27.28;82.88;102046.28;5563992;25;20025;-85
2024/04/12 12:19:39;;;;;;;47.95;45.25;;;;;;;28.16;71.40;102041.53;5566752;25;19997;-86
2024/04/12 12:22:10;;;;;;;45.72;43.13;;;;;;;27.02;73.17;102039.38;5563643;25;20045;-76
2024/04/12 12:24:39;;;;;;;67.85;64.35;;;;;;;27.56;71.84;102033.72;5527928;25;20005;-76
2024/04/12 12:27:08;;;;;;;57.42;53.88;;;;;;;27.69;82.11;102029.50;5525639;26;20002;-76
2024/04/12 12:29:37;;;;;;;63.03;59.53;;;;;;;27.66;71.23;102023.78;5527607;26;20037;-76
2024/04/12 12:32:05;;;;;;;45.15;42.65;;;;;;;29.08;71.75;102031.19;5525211;26;20359;-76
2024/04/12 12:34:34;;;;;;;45.03;42.22;;;;;;;28.13;68.14;102023.00;5553357;25;20004;-85
2024/04/12 12:37:01;;;;;;;52.58;49.45;;;;;;;28.48;68.10;102024.47;5561478;25;20001;-85